Time;durP1;ratioP1;P1;durP2;ratioP2;P2;SDS_P1;SDS_P2;PMS_P1;PMS_P2;Temp;Humidity;BMP_temperature;BMP_pressure;BME280_temperature;BME280_humidity;BME280_pressure;Samples;Min_cycle;Max_cycle;Signal;HPM_P1;HPM_P2
2022/07/20 00:01:43;;;;;;;3.05;1.80;;;;;;;;;;4247695;33;20145;-67
2022/07/20 00:04:09;;;;;;;2.62;1.75;;;;;;;;;;4247622;33;20116;-67
2022/07/20 00:35:30;;;;;;;2.60;1.77;;;;;;;;;;4606971;28;20206;-63
2022/07/20 00:37:56;;;;;;;2.03;1.60;;;;;;;;;;4251131;33;20097;-62
2022/07/20 00:40:22;;;;;;;2.35;1.60;;;;;;;;;;4247714;33;20223;-63
2022/07/20 00:42:48;;;;;;;2.25;1.60;;;;;;;;;;4247572;33;20468;-63
2022/07/20 00:45:14;;;;;;;1.95;1.55;;;;;;;;;;4247429;33;20144;-69
2022/07/20 00:47:40;;;;;;;2.72;1.58;;;;;;;;;;4234527;33;20096;-69
2022/07/20 00:50:07;;;;;;;5.50;1.67;;;;;;;;;;4247788;33;20512;-68
2022/07/20 00:52:34;;;;;;;2.78;1.83;;;;;;;;;;4234578;33;20200;-69
2022/07/20 00:55:00;;;;;;;2.20;1.73;;;;;;;;;;4247591;33;20123;-68
2022/07/20 00:57:26;;;;;;;2.20;1.60;;;;;;;;;;4233620;33;20285;-68
2022/07/20 00:59:52;;;;;;;2.95;1.70;;;;;;;;;;4247442;33;20457;-68
2022/07/20 01:02:18;;;;;;;2.00;1.67;;;;;;;;;;4246940;33;20455;-68
2022/07/20 01:04:44;;;;;;;2.70;1.85;;;;;;;;;;4247479;33;20136;-68
2022/07/20 01:07:10;;;;;;;1.70;1.60;;;;;;;;;;4234544;33;20210;-68
2022/07/20 01:09:36;;;;;;;3.08;1.73;;;;;;;;;;4247673;33;20452;-68
2022/07/20 01:12:02;;;;;;;1.70;1.60;;;;;;;;;;4247337;33;20112;-68
2022/07/20 01:14:28;;;;;;;3.75;1.77;;;;;;;;;;4247536;33;20097;-62
2022/07/20 01:16:54;;;;;;;2.20;1.70;;;;;;;;;;4247262;33;20100;-62
2022/07/20 01:19:20;;;;;;;4.85;1.67;;;;;;;;;;4247236;33;20191;-63
2022/07/20 01:21:46;;;;;;;2.70;1.80;;;;;;;;;;4247444;33;20120;-63
2022/07/20 01:24:13;;;;;;;2.33;1.67;;;;;;;;;;4247104;33;20116;-63
2022/07/20 01:26:44;;;;;;;5.82;2.05;;;;;;;;;;4247180;33;20140;-62
2022/07/20 01:29:10;;;;;;;1.77;1.67;;;;;;;;;;4247149;33;20131;-62
2022/07/20 01:31:37;;;;;;;5.35;2.03;;;;;;;;;;4247343;33;20136;-63
2022/07/20 01:34:03;;;;;;;7.68;1.80;;;;;;;;;;4247331;33;20140;-62
2022/07/20 01:36:29;;;;;;;4.60;1.70;;;;;;;;;;4247009;33;20454;-63
2022/07/20 01:38:55;;;;;;;2.28;2.00;;;;;;;;;;4247184;33;20137;-63
2022/07/20 01:41:21;;;;;;;2.45;1.77;;;;;;;;;;4247275;33;20109;-62
2022/07/20 01:43:47;;;;;;;5.65;1.90;;;;;;;;;;4246991;33;20105;-69
2022/07/20 01:46:13;;;;;;;1.92;1.62;;;;;;;;;;4245744;33;20132;-68
2022/07/20 01:48:40;;;;;;;2.05;1.58;;;;;;;;;;4210626;33;20535;-69
2022/07/20 01:51:06;;;;;;;2.78;1.98;;;;;;;;;;4234145;33;20132;-68
2022/07/20 01:53:32;;;;;;;4.82;2.42;;;;;;;;;;4247010;33;20208;-70
2022/07/20 01:55:58;;;;;;;4.95;1.87;;;;;;;;;;4247069;33;20477;-70
2022/07/20 01:58:24;;;;;;;7.57;1.87;;;;;;;;;;4246938;33;20116;-69
2022/07/20 02:00:50;;;;;;;5.12;1.70;;;;;;;;;;4246916;33;20105;-69
2022/07/20 02:03:17;;;;;;;5.45;1.62;;;;;;;;;;4247165;33;20108;-70
2022/07/20 02:05:43;;;;;;;10.70;1.85;;;;;;;;;;4234130;33;20187;-69
2022/07/20 02:08:09;;;;;;;2.22;1.75;;;;;;;;;;4246627;33;20092;-70
2022/07/20 02:10:36;;;;;;;3.20;1.80;;;;;;;;;;4245486;33;20124;-70
2022/07/20 02:13:02;;;;;;;2.80;1.80;;;;;;;;;;4247118;33;20113;-69
2022/07/20 02:18:13;;;;;;;4.35;1.83;;;;;;;;;;4246900;33;20107;-68
2022/07/20 02:20:40;;;;;;;2.35;1.90;;;;;;;;;;4247348;33;20128;-68
2022/07/20 02:23:08;;;;;;;9.90;2.08;;;;;;;;;;4246805;33;20121;-68
2022/07/20 02:25:36;;;;;;;3.15;1.80;;;;;;;;;;4247201;33;20124;-70
2022/07/20 02:28:03;;;;;;;2.83;1.90;;;;;;;;;;4246862;33;20447;-77
2022/07/20 02:30:29;;;;;;;3.20;2.08;;;;;;;;;;4234103;33;20104;-78
2022/07/20 02:32:55;;;;;;;3.47;1.92;;;;;;;;;;4247397;33;20184;-68
2022/07/20 02:35:21;;;;;;;3.83;2.10;;;;;;;;;;4232754;33;20430;-69
2022/07/20 02:37:47;;;;;;;3.08;2.10;;;;;;;;;;4246925;33;20112;-69
2022/07/20 02:40:13;;;;;;;2.35;1.70;;;;;;;;;;4246720;33;20615;-69
2022/07/20 02:42:39;;;;;;;5.07;1.70;;;;;;;;;;4233550;33;20540;-69
2022/07/20 02:45:05;;;;;;;3.58;2.00;;;;;;;;;;4246729;33;20112;-69
2022/07/20 02:47:31;;;;;;;6.82;2.12;;;;;;;;;;4246536;33;20127;-69
2022/07/20 02:50:00;;;;;;;3.12;1.80;;;;;;;;;;4233504;33;20215;-69
2022/07/20 02:52:26;;;;;;;2.85;1.65;;;;;;;;;;4246766;33;20113;-69
2022/07/20 02:54:52;;;;;;;7.12;2.10;;;;;;;;;;4245279;33;20125;-69
2022/07/20 02:57:18;;;;;;;2.00;1.80;;;;;;;;;;4246405;33;20140;-69
2022/07/20 02:59:44;;;;;;;3.65;1.60;;;;;;;;;;4246439;33;20199;-69
2022/07/20 03:02:09;;;;;;;1.83;1.52;;;;;;;;;;4246407;33;20465;-69
2022/07/20 03:04:35;;;;;;;2.72;1.80;;;;;;;;;;4246606;33;20128;-69
2022/07/20 03:07:01;;;;;;;4.37;1.92;;;;;;;;;;4233184;33;20116;-67
2022/07/20 03:09:27;;;;;;;2.03;1.83;;;;;;;;;;4246117;33;20192;-67
2022/07/20 03:11:53;;;;;;;4.70;1.70;;;;;;;;;;4246210;33;20097;-69
2022/07/20 03:14:19;;;;;;;3.60;1.65;;;;;;;;;;4246078;33;20128;-70
2022/07/20 03:16:48;;;;;;;2.33;1.75;;;;;;;;;;4246473;33;20591;-69
2022/07/20 03:19:14;;;;;;;3.50;1.75;;;;;;;;;;4246017;33;20101;-69
2022/07/20 03:21:40;;;;;;;3.30;1.70;;;;;;;;;;4247984;33;20508;-68
2022/07/20 03:24:06;;;;;;;1.80;1.67;;;;;;;;;;4248039;33;20088;-68
2022/07/20 03:26:32;;;;;;;5.75;1.80;;;;;;;;;;4247998;33;20080;-69
2022/07/20 03:28:58;;;;;;;5.12;2.08;;;;;;;;;;4247356;33;20215;-70
2022/07/20 03:31:24;;;;;;;4.87;1.65;;;;;;;;;;4247145;33;20192;-69
2022/07/20 03:33:50;;;;;;;3.58;1.92;;;;;;;;;;4248066;33;20113;-69
2022/07/20 03:36:16;;;;;;;8.05;1.90;;;;;;;;;;4247974;33;20114;-67
2022/07/20 03:38:42;;;;;;;3.60;1.75;;;;;;;;;;4248269;33;20117;-69
2022/07/20 03:41:08;;;;;;;1.75;1.58;;;;;;;;;;4248038;33;20128;-68
2022/07/20 03:43:34;;;;;;;1.62;1.52;;;;;;;;;;4248221;33;20568;-68
2022/07/20 03:46:00;;;;;;;6.53;2.47;;;;;;;;;;4247223;33;20172;-67
2022/07/20 03:48:26;;;;;;;1.92;1.70;;;;;;;;;;4247200;33;20133;-67
2022/07/20 03:50:52;;;;;;;5.87;1.85;;;;;;;;;;4247475;33;20104;-68
2022/07/20 03:53:18;;;;;;;5.15;1.73;;;;;;;;;;4247085;33;20091;-68
2022/07/20 03:55:44;;;;;;;4.90;1.80;;;;;;;;;;4247493;33;20471;-67
2022/07/20 03:58:10;;;;;;;3.00;1.80;;;;;;;;;;4247657;33;20092;-67
2022/07/20 04:00:36;;;;;;;4.12;2.50;;;;;;;;;;4247739;33;20144;-68
2022/07/20 04:03:02;;;;;;;1.60;1.50;;;;;;;;;;4234060;33;20113;-67
2022/07/20 04:05:28;;;;;;;4.65;2.05;;;;;;;;;;4247750;33;20119;-69
2022/07/20 04:07:54;;;;;;;1.80;1.70;;;;;;;;;;4247727;33;20108;-68
2022/07/20 04:10:20;;;;;;;1.60;1.50;;;;;;;;;;4248168;33;20129;-68
2022/07/20 04:12:46;;;;;;;4.60;1.73;;;;;;;;;;4248035;33;20271;-68
2022/07/20 04:15:12;;;;;;;3.55;1.90;;;;;;;;;;4247926;33;20185;-69
2022/07/20 04:17:41;;;;;;;2.95;1.70;;;;;;;;;;4248041;33;20119;-69
2022/07/20 04:20:08;;;;;;;1.75;1.65;;;;;;;;;;4247868;33;20200;-67
2022/07/20 04:22:34;;;;;;;4.72;1.80;;;;;;;;;;4247021;33;20123;-69
2022/07/20 04:25:00;;;;;;;6.70;1.80;;;;;;;;;;4246447;33;20554;-70
2022/07/20 04:27:26;;;;;;;3.00;1.40;;;;;;;;;;4247155;33;20117;-68
2022/07/20 04:29:52;;;;;;;2.40;1.90;;;;;;;;;;4245914;33;20215;-69
2022/07/20 04:32:18;;;;;;;2.50;1.83;;;;;;;;;;4247848;33;20112;-70
2022/07/20 04:34:44;;;;;;;5.85;1.77;;;;;;;;;;4233310;33;20143;-70
2022/07/20 04:37:11;;;;;;;3.12;2.05;;;;;;;;;;4247649;33;20105;-71
2022/07/20 04:39:37;;;;;;;5.32;2.08;;;;;;;;;;4247623;33;20114;-70
2022/07/20 04:42:04;;;;;;;6.03;2.03;;;;;;;;;;4247816;33;20128;-72
2022/07/20 04:44:30;;;;;;;2.55;1.60;;;;;;;;;;4247722;33;20191;-67
2022/07/20 04:46:56;;;;;;;1.65;1.52;;;;;;;;;;4247619;33;20473;-67
2022/07/20 04:49:22;;;;;;;5.47;2.00;;;;;;;;;;4247375;33;20089;-70
2022/07/20 04:51:48;;;;;;;1.65;1.40;;;;;;;;;;4247571;33;20139;-67
2022/07/20 04:54:14;;;;;;;4.87;1.60;;;;;;;;;;4247361;33;20093;-69
2022/07/20 04:56:40;;;;;;;1.80;1.70;;;;;;;;;;4247548;33;20119;-70
2022/07/20 04:59:06;;;;;;;1.80;1.52;;;;;;;;;;4234052;33;20105;-69
2022/07/20 05:01:32;;;;;;;1.50;1.40;;;;;;;;;;4247444;33;20104;-67
2022/07/20 05:03:58;;;;;;;2.90;2.03;;;;;;;;;;4247214;33;20112;-68
2022/07/20 05:06:24;;;;;;;3.58;2.37;;;;;;;;;;4247340;33;20196;-68
2022/07/20 05:08:50;;;;;;;5.07;1.83;;;;;;;;;;4247299;33;20116;-70
2022/07/20 05:11:16;;;;;;;7.15;1.65;;;;;;;;;;4247533;33;20121;-68
2022/07/20 05:13:42;;;;;;;1.77;1.60;;;;;;;;;;4247198;33;20113;-67
2022/07/20 05:16:10;;;;;;;2.58;1.83;;;;;;;;;;4247242;33;20105;-67
2022/07/20 05:18:37;;;;;;;3.35;1.92;;;;;;;;;;4233984;33;20485;-68
2022/07/20 05:21:03;;;;;;;1.55;1.45;;;;;;;;;;4247445;33;20117;-66
2022/07/20 05:23:29;;;;;;;1.62;1.52;;;;;;;;;;4247245;33;20112;-68
2022/07/20 05:25:55;;;;;;;10.52;1.40;;;;;;;;;;4247102;33;20412;-67
2022/07/20 05:28:21;;;;;;;1.98;1.60;;;;;;;;;;4234127;33;20556;-67
2022/07/20 05:30:48;;;;;;;2.35;1.60;;;;;;;;;;4222438;33;20124;-67
2022/07/20 05:33:15;;;;;;;13.43;2.55;;;;;;;;;;4247084;33;20093;-67
2022/07/20 05:35:41;;;;;;;0.80;0.80;;;;;;;;;;4234072;33;20488;-68
2022/07/20 05:38:07;;;;;;;1.30;1.20;;;;;;;;;;4247090;33;20116;-68
2022/07/20 05:40:33;;;;;;;2.40;1.60;;;;;;;;;;4247138;33;20123;-68
2022/07/20 05:42:59;;;;;;;1.90;1.75;;;;;;;;;;4246574;33;20697;-69
2022/07/20 05:45:25;;;;;;;1.75;1.65;;;;;;;;;;4247133;33;20127;-68
2022/07/20 05:47:51;;;;;;;1.95;1.50;;;;;;;;;;4247001;33;20109;-66
2022/07/20 05:50:17;;;;;;;7.95;1.83;;;;;;;;;;4234063;33;20139;-68
2022/07/20 05:52:43;;;;;;;1.60;1.50;;;;;;;;;;4247081;33;20235;-69
2022/07/20 05:55:09;;;;;;;2.30;1.60;;;;;;;;;;4247010;33;20115;-69
2022/07/20 05:57:35;;;;;;;3.83;2.37;;;;;;;;;;4233854;33;20544;-69
2022/07/20 06:00:01;;;;;;;6.65;1.50;;;;;;;;;;4246910;33;20100;-68
2022/07/20 06:02:27;;;;;;;8.77;1.65;;;;;;;;;;4246832;33;20203;-65
2022/07/20 06:04:54;;;;;;;4.05;1.50;;;;;;;;;;4210570;33;20132;-67
2022/07/20 06:07:20;;;;;;;1.83;1.70;;;;;;;;;;4222274;33;20558;-68
2022/07/20 06:09:46;;;;;;;3.72;2.45;;;;;;;;;;4233815;33;20121;-69
2022/07/20 06:12:12;;;;;;;2.17;1.77;;;;;;;;;;4247075;33;20130;-69
2022/07/20 06:14:38;;;;;;;20.83;3.15;;;;;;;;;;4247531;33;20095;-70
2022/07/20 06:17:04;;;;;;;4.87;1.48;;;;;;;;;;4248186;33;20476;-70
2022/07/20 06:19:30;;;;;;;3.35;1.60;;;;;;;;;;4247233;33;20109;-69
2022/07/20 06:21:56;;;;;;;3.33;1.23;;;;;;;;;;4246822;33;20208;-68
2022/07/20 06:24:22;;;;;;;2.37;1.25;;;;;;;;;;4233663;33;20220;-68
2022/07/20 06:26:48;;;;;;;2.55;1.60;;;;;;;;;;4247009;33;20128;-69
2022/07/20 06:29:14;;;;;;;1.98;1.55;;;;;;;;;;4233372;33;20124;-69
2022/07/20 06:31:40;;;;;;;3.50;1.52;;;;;;;;;;4246642;33;20119;-68
2022/07/20 06:34:08;;;;;;;2.00;1.80;;;;;;;;;;4246435;33;20105;-69
2022/07/20 06:36:34;;;;;;;6.72;1.67;;;;;;;;;;4246484;33;20207;-67
2022/07/20 06:39:00;;;;;;;1.77;1.50;;;;;;;;;;4246450;33;20113;-68
2022/07/20 06:41:27;;;;;;;3.15;1.58;;;;;;;;;;4246502;33;20207;-68
2022/07/20 06:43:52;;;;;;;1.48;1.37;;;;;;;;;;4246412;33;20231;-68
2022/07/20 06:46:19;;;;;;;2.25;1.45;;;;;;;;;;4233531;33;20216;-68
2022/07/20 06:48:45;;;;;;;4.22;1.95;;;;;;;;;;4246406;33;20550;-68
2022/07/20 06:51:11;;;;;;;1.65;1.55;;;;;;;;;;4233531;33;20136;-68
2022/07/20 06:53:37;;;;;;;1.55;1.45;;;;;;;;;;4246353;33;20105;-69
2022/07/20 06:56:03;;;;;;;2.67;1.58;;;;;;;;;;4220914;33;20105;-68
2022/07/20 06:58:29;;;;;;;8.25;1.45;;;;;;;;;;4246491;33;20306;-68
2022/07/20 07:00:55;;;;;;;1.10;1.10;;;;;;;;;;4233635;33;20259;-70
2022/07/20 07:03:21;;;;;;;2.62;1.62;;;;;;;;;;4233616;33;20630;-70
2022/07/20 07:05:47;;;;;;;1.98;1.40;;;;;;;;;;4246367;33;20165;-68
2022/07/20 07:08:19;;;;;;;1.17;1.17;;;;;;;;;;4233791;33;20631;-68
2022/07/20 07:10:46;;;;;;;1.85;1.48;;;;;;;;;;4233607;33;20116;-69
2022/07/20 07:13:12;;;;;;;1.70;1.40;;;;;;;;;;4246276;33;20220;-68
2022/07/20 07:15:38;;;;;;;1.95;1.65;;;;;;;;;;4246339;33;20195;-69
2022/07/20 07:18:04;;;;;;;1.70;1.60;;;;;;;;;;4246206;33;20116;-69
2022/07/20 07:20:30;;;;;;;3.10;1.48;;;;;;;;;;4246199;33;20120;-68
2022/07/20 07:22:56;;;;;;;1.52;1.42;;;;;;;;;;4233511;33;20117;-68
2022/07/20 07:25:22;;;;;;;1.92;1.73;;;;;;;;;;4246147;33;20217;-69
2022/07/20 07:27:48;;;;;;;1.67;1.40;;;;;;;;;;4246166;33;20238;-68
2022/07/20 07:30:14;;;;;;;3.65;1.60;;;;;;;;;;4246229;33;20112;-68
2022/07/20 07:32:40;;;;;;;1.05;1.05;;;;;;;;;;4246398;33;20127;-68
2022/07/20 07:35:06;;;;;;;8.35;1.23;;;;;;;;;;4245887;33;20111;-68
2022/07/20 07:37:32;;;;;;;0.93;0.93;;;;;;;;;;4245991;33;20561;-68
2022/07/20 07:39:58;;;;;;;1.50;1.40;;;;;;;;;;4232768;33;20112;-68
2022/07/20 07:42:25;;;;;;;2.55;1.40;;;;;;;;;;4248148;33;20192;-69
2022/07/20 07:44:51;;;;;;;1.20;1.20;;;;;;;;;;4247635;33;20113;-70
2022/07/20 07:47:17;;;;;;;4.60;1.40;;;;;;;;;;4247237;33;20116;-70
2022/07/20 07:49:43;;;;;;;3.40;2.47;;;;;;;;;;4246523;33;20236;-70
2022/07/20 07:52:09;;;;;;;1.90;1.65;;;;;;;;;;4245994;33;20128;-71
2022/07/20 07:54:35;;;;;;;2.20;1.62;;;;;;;;;;4232942;33;20125;-73
2022/07/20 07:57:01;;;;;;;1.60;1.40;;;;;;;;;;4232513;33;20117;-70
2022/07/20 07:59:28;;;;;;;1.20;1.20;;;;;;;;;;4232629;33;20116;-68
2022/07/20 08:01:54;;;;;;;1.23;1.17;;;;;;;;;;4232867;33;20105;-70
2022/07/20 08:04:20;;;;;;;3.83;1.60;;;;;;;;;;4232474;33;20201;-69
2022/07/20 08:06:49;;;;;;;3.22;1.50;;;;;;;;;;4247101;33;20113;-68
2022/07/20 08:09:15;;;;;;;3.00;1.40;;;;;;;;;;4247822;33;20192;-70
2022/07/20 08:11:41;;;;;;;2.37;1.42;;;;;;;;;;4248088;33;20191;-69
2022/07/20 08:14:07;;;;;;;1.65;1.50;;;;;;;;;;4234716;33;20654;-69
2022/07/20 08:16:33;;;;;;;4.43;1.40;;;;;;;;;;4247875;33;20282;-70
2022/07/20 08:18:59;;;;;;;2.20;1.20;;;;;;;;;;4247866;33;20155;-73
2022/07/20 08:21:25;;;;;;;2.15;1.48;;;;;;;;;;4247742;33;20154;-68
2022/07/20 08:23:51;;;;;;;1.30;1.20;;;;;;;;;;4247747;33;20682;-69
2022/07/20 08:26:17;;;;;;;1.25;1.15;;;;;;;;;;4247674;33;20151;-70
2022/07/20 08:28:43;;;;;;;6.35;1.70;;;;;;;;;;4247816;33;20273;-69
2022/07/20 08:31:09;;;;;;;11.35;1.73;;;;;;;;;;4234380;33;20129;-69
2022/07/20 08:33:35;;;;;;;1.55;1.45;;;;;;;;;;4234648;33;20120;-70
2022/07/20 08:36:02;;;;;;;1.17;1.17;;;;;;;;;;4245935;33;20126;-70
2022/07/20 08:38:28;;;;;;;1.62;1.52;;;;;;;;;;4233429;33;20204;-69
2022/07/20 08:40:54;;;;;;;1.25;1.17;;;;;;;;;;4247268;33;20728;-69
2022/07/20 08:43:20;;;;;;;1.20;1.10;;;;;;;;;;4211441;33;20116;-69
2022/07/20 08:45:47;;;;;;;2.35;1.70;;;;;;;;;;4247551;33;20266;-70
2022/07/20 08:48:18;;;;;;;4.43;1.80;;;;;;;;;;4234576;33;20116;-70
2022/07/20 08:50:44;;;;;;;5.18;1.37;;;;;;;;;;4223377;33;20089;-70
2022/07/20 08:53:11;;;;;;;1.42;1.33;;;;;;;;;;4211384;33;20109;-70
2022/07/20 08:55:37;;;;;;;2.65;1.42;;;;;;;;;;4247586;33;20415;-69
2022/07/20 08:58:03;;;;;;;1.17;1.17;;;;;;;;;;4247637;33;20131;-68
2022/07/20 09:00:29;;;;;;;3.35;1.42;;;;;;;;;;4247458;33;20116;-70
2022/07/20 09:03:01;;;;;;;7.35;1.50;;;;;;;;;;4222758;33;20460;-69
2022/07/20 09:05:30;;;;;;;1.85;1.30;;;;;;;;;;4222707;33;20092;-70
2022/07/20 09:07:57;;;;;;;6.80;1.65;;;;;;;;;;4247496;33;20119;-70
2022/07/20 09:10:28;;;;;;;7.53;1.55;;;;;;;;;;4234314;33;20449;-70
2022/07/20 09:13:00;;;;;;;3.42;1.15;;;;;;;;;;4234389;33;20224;-70
2022/07/20 09:15:32;;;;;;;4.65;1.33;;;;;;;;;;4234480;33;20191;-70
2022/07/20 09:18:02;;;;;;;2.12;1.42;;;;;;;;;;4246723;33;20112;-69
2022/07/20 09:20:29;;;;;;;6.53;1.35;;;;;;;;;;4247391;33;20128;-71
2022/07/20 09:23:04;;;;;;;2.15;1.40;;;;;;;;;;4247477;33;20215;-71
2022/07/20 09:25:30;;;;;;;1.45;1.30;;;;;;;;;;4247290;33;20105;-71
2022/07/20 09:27:57;;;;;;;2.12;1.30;;;;;;;;;;4247373;33;20123;-71
2022/07/20 09:30:23;;;;;;;2.95;1.35;;;;;;;;;;4247354;33;20202;-71
2022/07/20 09:32:54;;;;;;;2.28;1.23;;;;;;;;;;4233514;33;20100;-72
2022/07/20 09:35:22;;;;;;;3.25;1.30;;;;;;;;;;4233988;33;20121;-70
2022/07/20 09:37:48;;;;;;;7.47;1.33;;;;;;;;;;4247130;33;20521;-70
2022/07/20 09:40:14;;;;;;;2.78;2.15;;;;;;;;;;4247395;33;20129;-71
2022/07/20 09:42:41;;;;;;;1.70;1.60;;;;;;;;;;4247265;33;20120;-70
2022/07/20 09:45:18;;;;;;;3.80;1.50;;;;;;;;;;4234374;33;20113;-72
2022/07/20 09:48:03;;;;;;;1.40;1.30;;;;;;;;;;4246962;33;20104;-68
2022/07/20 09:50:43;;;;;;;2.87;1.52;;;;;;;;;;4234405;33;20123;-70
2022/07/20 09:53:10;;;;;;;3.60;2.05;;;;;;;;;;4234390;33;20174;-69
2022/07/20 09:55:37;;;;;;;1.50;1.40;;;;;;;;;;4247299;33;20101;-69
2022/07/20 09:58:04;;;;;;;6.35;2.20;;;;;;;;;;4247351;33;20429;-68
2022/07/20 10:00:30;;;;;;;2.70;1.70;;;;;;;;;;4247206;33;20108;-69
2022/07/20 10:02:59;;;;;;;1.90;1.40;;;;;;;;;;4234367;33;20097;-68
2022/07/20 10:05:28;;;;;;;6.97;1.80;;;;;;;;;;4222835;33;20199;-68
2022/07/20 10:07:54;;;;;;;4.37;1.92;;;;;;;;;;4234644;33;20120;-66
2022/07/20 10:10:20;;;;;;;2.50;1.60;;;;;;;;;;4233725;33;20210;-69
2022/07/20 10:12:46;;;;;;;2.37;1.30;;;;;;;;;;4246969;33;20124;-69
2022/07/20 10:15:15;;;;;;;1.75;1.45;;;;;;;;;;4246762;33;20116;-70
2022/07/20 10:17:43;;;;;;;2.12;1.80;;;;;;;;;;4233695;33;20097;-70
2022/07/20 10:20:30;;;;;;;7.57;1.52;;;;;;;;;;4233532;33;20108;-68
2022/07/20 10:23:14;;;;;;;1.40;1.30;;;;;;;;;;4246785;33;20100;-71
2022/07/20 10:25:41;;;;;;;8.05;1.20;;;;;;;;;;4246901;33;20101;-71
2022/07/20 10:28:32;;;;;;;5.50;2.10;;;;;;;;;;4246637;33;20477;-70
2022/07/20 10:31:02;;;;;;;2.12;1.30;;;;;;;;;;4246612;33;20215;-71
2022/07/20 10:33:28;;;;;;;2.80;1.50;;;;;;;;;;4246680;33;20207;-70
2022/07/20 10:38:43;;;;;;;2.50;1.33;;;;;;;;;;4224031;33;20674;-69
2022/07/20 10:44:13;;;;;;;;;;;;;;;;;;4246543;33;20171;-67
2022/07/20 10:46:39;;;;;;;6.53;1.60;;;;;;;;;;4246214;33;20423;-68
2022/07/20 10:49:05;;;;;;;4.72;1.50;;;;;;;;;;4232766;33;20207;-68
2022/07/20 10:51:31;;;;;;;6.22;3.80;;;;;;;;;;4246076;33;20133;-67
2022/07/20 10:54:31;;;;;;;17.83;9.57;;;;;;;;;;4246157;33;20506;-70
2022/07/20 10:56:58;;;;;;;5.50;2.58;;;;;;;;;;4246441;33;20128;-67
2022/07/20 10:59:24;;;;;;;12.93;6.05;;;;;;;;;;4246293;33;20120;-67
2022/07/20 11:01:50;;;;;;;1.65;1.48;;;;;;;;;;4257038;33;20203;-68
2022/07/20 11:04:17;;;;;;;1.87;1.42;;;;;;;;;;4246450;33;20111;-69
2022/07/20 11:06:44;;;;;;;1.62;1.42;;;;;;;;;;4256582;33;20096;-69
2022/07/20 11:09:11;;;;;;;5.55;1.30;;;;;;;;;;4246217;33;20152;-69
2022/07/20 11:11:38;;;;;;;3.28;1.60;;;;;;;;;;4246303;33;20548;-68
2022/07/20 11:14:05;;;;;;;2.25;1.15;;;;;;;;;;4233184;33;20100;-69
2022/07/20 11:16:34;;;;;;;2.60;1.30;;;;;;;;;;4256579;33;20556;-67
2022/07/20 11:19:02;;;;;;;2.03;1.40;;;;;;;;;;4256571;33;20112;-68
2022/07/20 11:21:40;;;;;;;1.80;1.10;;;;;;;;;;4246360;33;20089;-69
2022/07/20 11:24:25;;;;;;;1.50;1.40;;;;;;;;;;4233097;33;20103;-70
2022/07/20 11:26:52;;;;;;;2.25;1.42;;;;;;;;;;4233256;33;20117;-70
2022/07/20 11:29:18;;;;;;;1.95;1.50;;;;;;;;;;4244524;33;20465;-70
2022/07/20 11:31:44;;;;;;;2.83;1.70;;;;;;;;;;4246065;33;20127;-71
2022/07/20 11:34:13;;;;;;;1.80;1.50;;;;;;;;;;4256473;33;20113;-69
2022/07/20 11:36:39;;;;;;;4.18;1.80;;;;;;;;;;4256266;33;20091;-70
2022/07/20 11:39:09;;;;;;;2.83;1.58;;;;;;;;;;4256329;33;20156;-70
2022/07/20 11:41:38;;;;;;;5.95;1.50;;;;;;;;;;4233861;33;20089;-70
2022/07/20 11:44:07;;;;;;;1.75;1.25;;;;;;;;;;4246710;33;20190;-70
2022/07/20 11:46:43;;;;;;;4.82;1.55;;;;;;;;;;4248115;33;20135;-70
2022/07/20 11:49:13;;;;;;;2.70;1.30;;;;;;;;;;4248060;33;20289;-69
2022/07/20 11:51:40;;;;;;;1.83;1.42;;;;;;;;;;4258572;33;20127;-71
2022/07/20 11:54:07;;;;;;;1.92;1.20;;;;;;;;;;4258348;33;20111;-70
2022/07/20 11:56:38;;;;;;;1.67;1.55;;;;;;;;;;4248381;33;20116;-68
2022/07/20 11:59:05;;;;;;;4.28;1.40;;;;;;;;;;4211937;33;20167;-69
2022/07/20 12:01:36;;;;;;;1.48;1.37;;;;;;;;;;4248212;33;20128;-70
2022/07/20 12:04:06;;;;;;;2.37;1.90;;;;;;;;;;4246541;33;20136;-70
2022/07/20 12:06:34;;;;;;;1.48;1.37;;;;;;;;;;4248051;33;20096;-69
2022/07/20 12:09:04;;;;;;;1.40;1.30;;;;;;;;;;4248111;33;20108;-71
2022/07/20 12:11:30;;;;;;;3.15;1.48;;;;;;;;;;4247757;33;20284;-68
2022/07/20 12:13:56;;;;;;;0.90;0.90;;;;;;;;;;4258203;33;20112;-69
2022/07/20 12:16:22;;;;;;;1.65;1.27;;;;;;;;;;4234547;33;20187;-70
2022/07/20 12:18:51;;;;;;;1.50;1.40;;;;;;;;;;4247815;33;20206;-70
2022/07/20 12:21:20;;;;;;;3.87;2.67;;;;;;;;;;4247626;33;20139;-70
2022/07/20 12:23:51;;;;;;;5.72;3.92;;;;;;;;;;4247710;33;20188;-70
2022/07/20 12:26:27;;;;;;;1.75;1.62;;;;;;;;;;4247702;33;20105;-70
2022/07/20 12:28:55;;;;;;;5.75;1.60;;;;;;;;;;4247730;33;20120;-70
2022/07/20 12:31:25;;;;;;;1.23;1.15;;;;;;;;;;4258010;33;20583;-70
2022/07/20 12:34:06;;;;;;;1.50;1.40;;;;;;;;;;4247685;33;20093;-69
2022/07/20 12:36:52;;;;;;;2.60;1.40;;;;;;;;;;4247554;33;20203;-67
2022/07/20 12:39:41;;;;;;;4.22;1.40;;;;;;;;;;4247477;33;20200;-68
2022/07/20 12:42:22;;;;;;;3.42;1.10;;;;;;;;;;4257901;33;20103;-69
2022/07/20 12:44:57;;;;;;;1.52;1.42;;;;;;;;;;4258028;33;20127;-69
2022/07/20 12:47:23;;;;;;;3.65;1.40;;;;;;;;;;4247514;33;20195;-69
2022/07/20 12:49:49;;;;;;;3.12;1.73;;;;;;;;;;4247538;33;20528;-69
2022/07/20 12:52:15;;;;;;;5.68;1.40;;;;;;;;;;4246851;33;20207;-69
2022/07/20 12:54:41;;;;;;;1.10;1.10;;;;;;;;;;4234088;33;20128;-69
2022/07/20 12:57:07;;;;;;;2.90;1.60;;;;;;;;;;4247666;33;20104;-69
2022/07/20 12:59:33;;;;;;;2.70;1.40;;;;;;;;;;4257864;33;20140;-69
2022/07/20 13:01:59;;;;;;;3.53;1.58;;;;;;;;;;4257692;33;20121;-69
2022/07/20 13:04:26;;;;;;;1.70;1.00;;;;;;;;;;4247306;33;20132;-70
2022/07/20 13:06:54;;;;;;;5.35;1.50;;;;;;;;;;4247340;33;20564;-70
2022/07/20 13:09:22;;;;;;;1.90;1.48;;;;;;;;;;4245873;33;20168;-69
2022/07/20 13:11:49;;;;;;;2.22;1.40;;;;;;;;;;4222598;33;20533;-69
2022/07/20 13:14:19;;;;;;;3.40;1.50;;;;;;;;;;4234164;33;20113;-68
2022/07/20 13:16:46;;;;;;;1.52;1.42;;;;;;;;;;4247270;33;20093;-70
2022/07/20 13:19:13;;;;;;;2.72;2.22;;;;;;;;;;4222383;33;20124;-70
2022/07/20 13:21:40;;;;;;;3.55;1.58;;;;;;;;;;4234093;33;20129;-67
2022/07/20 13:24:06;;;;;;;8.27;1.73;;;;;;;;;;4247093;33;20450;-69
2022/07/20 13:26:32;;;;;;;1.40;1.30;;;;;;;;;;4247363;33;20540;-70
2022/07/20 13:28:58;;;;;;;2.03;1.20;;;;;;;;;;4257465;33;20104;-70
2022/07/20 13:31:25;;;;;;;3.62;1.80;;;;;;;;;;4247043;33;20119;-71
2022/07/20 13:33:52;;;;;;;4.78;1.55;;;;;;;;;;4247054;33;20133;-70
2022/07/20 13:36:18;;;;;;;4.72;1.50;;;;;;;;;;4234346;33;20189;-72
2022/07/20 13:38:48;;;;;;;3.58;1.60;;;;;;;;;;4257608;33;20119;-68
2022/07/20 13:41:15;;;;;;;3.70;1.52;;;;;;;;;;4247042;33;20112;-70
2022/07/20 13:43:41;;;;;;;8.80;1.45;;;;;;;;;;4247113;33;20108;-70
2022/07/20 13:46:09;;;;;;;3.35;2.00;;;;;;;;;;4247208;33;20099;-69
2022/07/20 13:48:35;;;;;;;5.22;1.90;;;;;;;;;;4247064;33;20116;-68
2022/07/20 13:51:01;;;;;;;5.45;1.70;;;;;;;;;;4247471;33;20542;-67
2022/07/20 13:53:27;;;;;;;3.62;1.83;;;;;;;;;;4245800;33;20121;-69
2022/07/20 13:55:53;;;;;;;3.83;1.70;;;;;;;;;;4247361;33;20112;-69
2022/07/20 13:58:20;;;;;;;7.75;2.83;;;;;;;;;;4246842;33;20623;-68
2022/07/20 14:00:46;;;;;;;5.72;2.05;;;;;;;;;;4247117;33;20157;-69
2022/07/20 14:03:12;;;;;;;5.10;3.10;;;;;;;;;;4257060;33;20116;-67
2022/07/20 14:05:38;;;;;;;13.15;4.93;;;;;;;;;;4256815;33;20112;-68
2022/07/20 14:08:05;;;;;;;7.70;2.20;;;;;;;;;;4246852;33;20551;-65
2022/07/20 14:10:31;;;;;;;4.85;1.60;;;;;;;;;;4233829;33;20420;-67
2022/07/20 14:12:58;;;;;;;2.08;1.62;;;;;;;;;;4247186;33;20101;-70
2022/07/20 14:15:24;;;;;;;2.35;1.83;;;;;;;;;;4246745;33;20190;-65
2022/07/20 14:17:50;;;;;;;3.70;2.53;;;;;;;;;;4246841;33;20096;-67
2022/07/20 14:20:16;;;;;;;3.20;1.40;;;;;;;;;;4246759;33;20128;-68
2022/07/20 14:22:42;;;;;;;3.78;1.70;;;;;;;;;;4257057;33;20215;-68
2022/07/20 14:25:09;;;;;;;1.67;1.42;;;;;;;;;;4246553;33;20504;-71
2022/07/20 14:27:35;;;;;;;2.50;1.67;;;;;;;;;;4246592;33;20132;-65
2022/07/20 14:30:01;;;;;;;1.65;1.55;;;;;;;;;;4246667;33;20124;-66
2022/07/20 14:32:28;;;;;;;1.50;1.40;;;;;;;;;;4233567;33;20113;-65
2022/07/20 14:34:54;;;;;;;4.55;1.70;;;;;;;;;;4256819;33;20163;-65
2022/07/20 14:37:20;;;;;;;1.45;1.35;;;;;;;;;;4246762;33;20203;-64
2022/07/20 14:39:46;;;;;;;1.33;1.23;;;;;;;;;;4233528;33;20120;-66
2022/07/20 14:42:12;;;;;;;1.40;1.30;;;;;;;;;;4246439;33;20109;-68
2022/07/20 14:44:39;;;;;;;1.87;1.60;;;;;;;;;;4246428;33;20128;-67
2022/07/20 14:47:06;;;;;;;4.35;1.80;;;;;;;;;;4246511;33;20583;-67
2022/07/20 14:49:32;;;;;;;1.90;1.48;;;;;;;;;;4246428;33;20107;-67
2022/07/20 14:51:58;;;;;;;3.55;2.20;;;;;;;;;;4246427;33;20101;-67
2022/07/20 14:54:24;;;;;;;7.50;2.10;;;;;;;;;;4246413;33;20453;-68
2022/07/20 14:56:50;;;;;;;3.22;1.90;;;;;;;;;;4246417;33;20177;-67
2022/07/20 14:59:17;;;;;;;2.00;1.70;;;;;;;;;;4246259;33;20140;-67
2022/07/20 15:01:43;;;;;;;2.25;1.50;;;;;;;;;;4246389;33;20109;-67
2022/07/20 15:04:09;;;;;;;4.03;1.50;;;;;;;;;;4256587;33;20088;-69
2022/07/20 15:06:35;;;;;;;2.00;1.55;;;;;;;;;;4246339;33;20120;-68
2022/07/20 15:09:03;;;;;;;4.15;1.58;;;;;;;;;;4245188;33;20121;-67
2022/07/20 15:11:29;;;;;;;5.82;2.15;;;;;;;;;;4246446;33;20089;-66
2022/07/20 15:13:55;;;;;;;3.15;1.70;;;;;;;;;;4246107;33;20132;-67
2022/07/20 15:16:21;;;;;;;1.87;1.45;;;;;;;;;;4245279;33;20104;-68
2022/07/20 15:18:47;;;;;;;1.35;1.33;;;;;;;;;;4256665;33;20096;-66
2022/07/20 15:21:14;;;;;;;1.20;1.20;;;;;;;;;;4246148;33;20425;-66